createdAt,value
2022-08-16T00:00:38.591Z,99383.31
2022-08-16T00:03:13.161Z,99388.03
2022-08-16T00:05:48.065Z,99379.03
2022-08-16T00:08:35.789Z,99381.47
2022-08-16T00:11:08.080Z,99379.81
2022-08-16T00:13:53.309Z,99379.53
2022-08-16T00:17:06.038Z,99388.03
2022-08-16T00:19:18.312Z,99390.28
2022-08-16T00:21:53.316Z,99385.34
2022-08-16T00:24:32.660Z,99382.13
2022-08-16T00:27:03.455Z,99390.41
2022-08-16T00:29:33.638Z,99376.50
2022-08-16T00:32:06.499Z,99382.38
2022-08-16T00:34:43.465Z,99378.53
2022-08-16T00:37:17.099Z,99387.16
2022-08-16T00:39:58.028Z,99382.69
2022-08-16T00:42:32.031Z,99389.78
2022-08-16T00:45:08.416Z,99382.78
2022-08-16T00:47:48.918Z,99388.66
2022-08-16T00:50:36.311Z,99386.25
2022-08-16T00:53:07.935Z,99379.28
2022-08-16T00:55:40.733Z,99388.34
2022-08-16T00:58:13.033Z,99392.44
2022-08-16T01:00:54.048Z,99389.34
2022-08-16T01:03:30.126Z,99392.50
2022-08-16T01:06:40.850Z,99390.50
2022-08-16T01:08:55.725Z,99393.31
2022-08-16T01:11:30.024Z,99395.78
2022-08-16T01:14:04.887Z,99392.19
2022-08-16T01:16:35.166Z,99400.25
2022-08-16T01:19:11.399Z,99394.69
2022-08-16T01:21:51.678Z,99389.97
2022-08-16T01:24:53.722Z,99401.47
2022-08-16T01:27:23.430Z,99398.78
2022-08-16T01:30:01.890Z,99400.03
2022-08-16T01:32:38.780Z,99400.88
2022-08-16T01:35:17.669Z,99390.91
2022-08-16T01:37:53.966Z,99392.94
2022-08-16T01:40:31.607Z,99394.47
2022-08-16T01:43:01.065Z,99410.34
2022-08-16T01:45:40.706Z,99407.19
2022-08-16T01:48:19.620Z,99408.13
2022-08-16T01:51:09.788Z,99391.50
2022-08-16T01:53:43.896Z,99403.06
2022-08-16T01:56:24.233Z,99404.59
2022-08-16T01:58:56.051Z,99402.72
2022-08-16T02:01:28.095Z,99401.25
2022-08-16T02:04:10.195Z,99399.38
2022-08-16T02:06:45.928Z,99399.50
2022-08-16T02:09:20.977Z,99403.09
2022-08-16T02:11:56.683Z,99400.75
2022-08-16T02:14:31.553Z,99399.94
2022-08-16T02:17:04.737Z,99398.09
2022-08-16T02:19:58.688Z,99405.31
2022-08-16T02:22:33.542Z,99405.25
2022-08-16T02:25:09.934Z,99405.66
2022-08-16T02:27:43.634Z,99406.84
2022-08-16T02:30:36.778Z,99406.78
2022-08-16T02:33:11.998Z,99402.53
2022-08-16T02:35:49.966Z,99409.66
2022-08-16T02:38:26.699Z,99412.47
2022-08-16T02:40:57.634Z,99399.41
2022-08-16T02:43:33.434Z,99408.50
2022-08-16T02:46:08.881Z,99411.28
2022-08-16T02:48:39.842Z,99404.13
2022-08-16T02:51:23.462Z,99413.63
2022-08-16T02:53:53.565Z,99411.69
2022-08-16T02:56:25.628Z,99411.28
2022-08-16T02:59:11.477Z,99415.16
2022-08-16T03:01:44.383Z,99425.97
2022-08-16T03:04:28.769Z,99423.53
2022-08-16T03:07:11.801Z,99418.81
2022-08-16T03:09:44.927Z,99419.75
2022-08-16T03:12:19.403Z,99415.69
2022-08-16T03:14:52.496Z,99416.81
2022-08-16T03:17:24.698Z,99420.38
2022-08-16T03:20:05.601Z,99429.03
2022-08-16T03:22:40.327Z,99424.66
2022-08-16T03:25:18.129Z,99425.81
2022-08-16T03:27:59.931Z,99426.75
2022-08-16T03:30:34.378Z,99424.72
2022-08-16T03:33:07.452Z,99434.22
2022-08-16T03:35:45.773Z,99438.19
2022-08-16T03:38:34.536Z,99422.31
2022-08-16T03:41:17.099Z,99419.97
2022-08-16T03:43:59.748Z,99425.88
2022-08-16T03:46:47.312Z,99436.19
2022-08-16T03:49:37.423Z,99433.75
2022-08-16T03:52:13.579Z,99432.97
2022-08-16T03:54:57.760Z,99433.38
2022-08-16T03:57:36.263Z,99437.66
2022-08-16T04:00:35.275Z,99431.69
2022-08-16T04:03:14.896Z,99433.50
2022-08-16T04:05:51.459Z,99431.56
2022-08-16T04:08:27.833Z,99437.84
2022-08-16T04:11:04.944Z,99437.78
2022-08-16T04:14:00.708Z,99436.09
2022-08-16T04:16:38.084Z,99428.06
2022-08-16T04:19:51.639Z,99432.97
2022-08-16T04:22:48.985Z,99433.31
2022-08-16T04:25:23.292Z,99435.25
2022-08-16T04:28:51.710Z,99435.78
2022-08-16T04:31:01.371Z,99435.00
2022-08-16T04:33:50.936Z,99440.66
2022-08-16T04:36:32.680Z,99441.44
2022-08-16T04:39:03.326Z,99437.06
2022-08-16T04:41:37.614Z,99436.84
2022-08-16T04:44:52.819Z,99441.97
2022-08-16T04:47:21.603Z,99433.56
2022-08-16T04:49:59.269Z,99442.44
2022-08-16T04:52:36.662Z,99440.94
2022-08-16T04:55:16.978Z,99437.28
2022-08-16T04:57:53.369Z,99438.94
2022-08-16T05:00:34.002Z,99442.28
2022-08-16T05:03:16.031Z,99445.69
2022-08-16T05:06:07.025Z,99442.69
2022-08-16T05:08:47.422Z,99445.63
2022-08-16T05:11:34.731Z,99444.53
2022-08-16T05:14:07.719Z,99449.91
2022-08-16T05:16:46.114Z,99438.41
2022-08-16T05:19:19.312Z,99441.88
2022-08-16T05:22:19.178Z,99435.47
2022-08-16T05:24:56.824Z,99438.44
2022-08-16T05:27:29.481Z,99435.91
2022-08-16T05:30:35.662Z,99440.16
2022-08-16T05:33:27.306Z,99440.66
2022-08-16T05:36:03.640Z,99439.66
2022-08-16T05:38:41.807Z,99441.09
2022-08-16T05:41:22.020Z,99439.63
2022-08-16T05:43:59.203Z,99438.22
2022-08-16T05:46:45.104Z,99435.56
2022-08-16T05:49:22.432Z,99439.81
2022-08-16T05:52:00.286Z,99440.50
2022-08-16T05:54:32.210Z,99438.78
2022-08-16T05:57:06.904Z,99444.19
2022-08-16T05:59:45.626Z,99437.34
2022-08-16T06:02:17.781Z,99442.28
2022-08-16T06:04:49.487Z,99437.50
2022-08-16T06:07:24.991Z,99439.16
2022-08-16T06:10:32.507Z,99430.53
2022-08-16T06:13:07.421Z,99446.75
2022-08-16T06:15:41.527Z,99444.19
2022-08-16T06:18:12.377Z,99433.56
2022-08-16T06:20:55.490Z,99440.50
2022-08-16T06:23:28.209Z,99444.03
2022-08-16T06:26:07.764Z,99440.91
2022-08-16T06:28:44.129Z,99434.63
2022-08-16T06:31:26.046Z,99433.78
2022-08-16T06:33:59.158Z,99433.44
2022-08-16T06:36:33.461Z,99435.94
2022-08-16T06:39:25.671Z,99440.44
2022-08-16T06:42:01.207Z,99440.81
2022-08-16T06:44:53.067Z,99429.28
2022-08-16T06:47:53.116Z,99440.34
2022-08-16T06:50:29.463Z,99437.59
2022-08-16T06:53:09.019Z,99437.00
2022-08-16T06:55:54.543Z,99430.63
2022-08-16T06:58:31.716Z,99430.75
2022-08-16T07:01:15.007Z,99431.13
2022-08-16T07:03:55.618Z,99425.84
2022-08-16T07:06:32.816Z,99436.59
2022-08-16T07:09:09.767Z,99427.56
2022-08-16T07:11:51.767Z,99428.28
2022-08-16T07:14:35.390Z,99441.22
2022-08-16T07:17:11.286Z,99429.25
2022-08-16T07:20:03.499Z,99432.16
2022-08-16T07:22:59.428Z,99428.69
2022-08-16T07:25:48.951Z,99442.44
2022-08-16T07:28:24.244Z,99434.22
2022-08-16T07:31:00.270Z,99440.31
2022-08-16T07:33:52.205Z,99441.44
2022-08-16T07:36:27.096Z,99440.38
2022-08-16T07:39:01.195Z,99431.03
2022-08-16T07:41:37.420Z,99441.06
2022-08-16T07:44:16.428Z,99438.13
2022-08-16T07:46:55.448Z,99453.88
2022-08-16T07:49:32.447Z,99399.84
2022-08-16T07:52:18.901Z,99427.63
2022-08-16T07:54:53.434Z,99430.94
2022-08-16T07:57:26.354Z,99443.19
2022-08-16T07:59:57.522Z,99443.91
2022-08-16T08:02:28.900Z,99434.28
2022-08-16T08:05:05.523Z,99445.34
2022-08-16T08:07:36.814Z,99452.13
2022-08-16T08:10:11.068Z,99424.28
2022-08-16T08:12:43.859Z,99432.81
2022-08-16T08:15:15.516Z,99437.22
2022-08-16T08:17:55.366Z,99432.75
2022-08-16T08:20:36.058Z,99427.84
2022-08-16T08:23:12.306Z,99441.38
2022-08-16T08:25:53.947Z,99433.75
2022-08-16T08:28:33.812Z,99415.28
2022-08-16T08:31:11.718Z,99413.25
2022-08-16T08:33:51.603Z,99427.28
2022-08-16T08:36:32.940Z,99422.09
2022-08-16T08:39:12.905Z,99408.75
2022-08-16T08:41:46.509Z,99417.50
2022-08-16T08:44:29.835Z,99416.53
2022-08-16T08:47:09.344Z,99413.47
2022-08-16T08:49:46.323Z,99402.53
2022-08-16T08:52:34.404Z,99418.25
2022-08-16T08:55:17.001Z,99426.38
2022-08-16T08:57:48.539Z,99430.00
2022-08-16T09:00:34.423Z,99420.31
2022-08-16T09:03:25.314Z,99420.03
2022-08-16T09:05:58.368Z,99418.88
2022-08-16T09:08:31.641Z,99439.75
2022-08-16T09:11:08.969Z,99423.66
2022-08-16T09:13:47.100Z,99422.63
2022-08-16T09:17:03.492Z,99419.03
2022-08-16T09:19:10.308Z,99426.47
2022-08-16T09:21:41.143Z,99422.25
2022-08-16T09:24:13.228Z,99422.06
2022-08-16T09:27:05.944Z,99425.75
2022-08-16T09:29:45.742Z,99428.81
2022-08-16T09:32:25.617Z,99421.38
2022-08-16T09:35:01.825Z,99431.28
2022-08-16T09:37:36.820Z,99431.59
2022-08-16T09:40:33.080Z,99438.50
2022-08-16T09:43:46.422Z,99435.78
2022-08-16T09:46:45.196Z,99410.44
2022-08-16T09:48:59.457Z,99409.03
2022-08-16T09:51:36.597Z,99423.28
2022-08-16T09:54:09.657Z,99411.53
2022-08-16T09:56:52.835Z,99404.97
2022-08-16T09:59:25.485Z,99403.91
2022-08-16T10:02:01.119Z,99406.25
2022-08-16T10:04:54.313Z,99400.44
2022-08-16T10:07:25.044Z,99397.38
2022-08-16T10:09:56.490Z,99403.69
2022-08-16T10:12:55.742Z,99406.50
2022-08-16T10:15:30.047Z,99394.84
2022-08-16T10:18:02.500Z,99405.31
2022-08-16T10:20:51.161Z,99400.38
2022-08-16T10:23:22.996Z,99407.69
2022-08-16T10:27:20.232Z,99405.38
2022-08-16T10:28:52.350Z,99410.19
2022-08-16T10:31:44.130Z,99407.53
2022-08-16T10:34:31.349Z,99404.75
2022-08-16T10:37:03.501Z,99393.63
2022-08-16T10:39:41.792Z,99399.19
2022-08-16T10:42:15.470Z,99397.75
2022-08-16T10:44:53.846Z,99394.91
2022-08-16T10:47:25.183Z,99391.03
2022-08-16T10:49:56.079Z,99388.47
2022-08-16T10:58:11.731Z,99396.13
2022-08-16T11:00:46.229Z,99382.25
2022-08-16T11:06:15.120Z,99385.81
2022-08-16T11:09:20.855Z,99381.22
2022-08-16T11:14:33.522Z,99361.81
2022-08-16T11:17:11.410Z,99383.25
2022-08-16T11:22:42.187Z,99381.63
2022-08-16T11:29:12.195Z,99378.09
2022-08-16T11:31:09.475Z,99372.31
2022-08-16T11:33:53.346Z,99370.34
2022-08-16T11:36:25.073Z,99361.94
2022-08-16T11:39:05.634Z,99368.78
2022-08-16T11:41:43.567Z,99371.72
2022-08-16T11:44:14.099Z,99361.09
2022-08-16T11:46:50.131Z,99366.50
2022-08-16T11:49:25.940Z,99369.66
2022-08-16T11:51:56.438Z,99365.09
2022-08-16T11:54:34.294Z,99363.22
2022-08-16T11:57:09.150Z,99358.28
2022-08-16T11:59:41.307Z,99359.00
2022-08-16T12:02:31.907Z,99355.06
2022-08-16T12:05:09.759Z,99348.91
2022-08-16T12:07:42.632Z,99352.94
2022-08-16T12:10:21.293Z,99359.94
2022-08-16T12:12:57.867Z,99353.59
2022-08-16T12:15:29.266Z,99353.47
2022-08-16T12:18:03.460Z,99342.88
2022-08-16T12:20:45.802Z,99342.03
2022-08-16T12:23:15.734Z,99342.06
2022-08-16T12:25:48.175Z,99335.03
2022-08-16T12:28:36.980Z,99334.16
2022-08-16T12:31:19.207Z,99339.66
2022-08-16T12:33:57.689Z,99324.47
2022-08-16T12:36:30.148Z,99321.03
2022-08-16T12:39:03.735Z,99341.00
2022-08-16T12:41:37.954Z,99331.38
2022-08-16T12:44:26.811Z,99333.25
2022-08-16T12:47:21.128Z,99319.09
2022-08-16T12:49:54.314Z,99311.78
2022-08-16T12:52:38.840Z,99320.19
2022-08-16T12:55:16.989Z,99314.31
2022-08-16T12:57:58.206Z,99311.19
2022-08-16T13:00:33.291Z,99313.56
2022-08-16T13:03:07.877Z,99317.69
2022-08-16T13:05:47.935Z,99311.31
2022-08-16T13:08:30.988Z,99308.59
2022-08-16T13:11:15.361Z,99306.84
2022-08-16T13:14:01.119Z,99312.66
2022-08-16T13:16:37.717Z,99301.59
2022-08-16T13:19:10.592Z,99301.09
2022-08-16T13:21:50.698Z,99304.53
2022-08-16T13:24:35.431Z,99300.91
2022-08-16T13:27:12.988Z,99295.00
2022-08-16T13:29:57.366Z,99297.31
2022-08-16T13:32:40.212Z,99295.50
2022-08-16T13:35:15.868Z,99301.28
2022-08-16T13:37:50.831Z,99295.09
2022-08-16T13:40:26.430Z,99287.59
2022-08-16T13:43:01.566Z,99286.34
2022-08-16T13:45:44.919Z,99281.50
2022-08-16T13:48:21.891Z,99283.03
2022-08-16T13:51:07.705Z,99278.78
2022-08-16T13:53:38.287Z,99277.22
2022-08-16T13:56:24.757Z,99285.16
2022-08-16T13:58:55.713Z,99273.22
2022-08-16T14:01:27.768Z,99265.34
2022-08-16T14:04:01.394Z,99265.94
2022-08-16T14:06:34.497Z,99267.50
2022-08-16T14:09:06.560Z,99264.09
2022-08-16T14:11:38.454Z,99262.19
2022-08-16T14:14:11.248Z,99269.09
2022-08-16T14:16:41.691Z,99253.72
2022-08-16T14:19:22.405Z,99254.09
2022-08-16T14:22:14.610Z,99253.03
2022-08-16T14:24:50.314Z,99256.72
2022-08-16T14:27:31.763Z,99256.81
2022-08-16T14:30:05.668Z,99258.16
2022-08-16T14:32:35.974Z,99252.81
2022-08-16T14:35:14.103Z,99251.03
2022-08-16T14:37:52.622Z,99247.81
2022-08-16T14:40:29.142Z,99252.31
2022-08-16T14:43:07.040Z,99258.78
2022-08-16T14:45:37.510Z,99256.91
2022-08-16T14:48:09.615Z,99255.00
2022-08-16T14:50:41.328Z,99262.50
2022-08-16T14:53:12.289Z,99254.09
2022-08-16T14:55:52.224Z,99257.38
2022-08-16T14:58:35.080Z,99257.34
2022-08-16T15:01:10.141Z,99257.09
2022-08-16T15:03:44.917Z,99251.47
2022-08-16T15:06:16.450Z,99249.75
2022-08-16T15:08:46.863Z,99253.81
2022-08-16T15:11:17.791Z,99251.34
2022-08-16T15:13:48.957Z,99244.03
2022-08-16T15:16:29.022Z,99248.88
2022-08-16T15:19:01.666Z,99250.09
2022-08-16T15:21:42.492Z,99244.50
2022-08-16T15:24:16.630Z,99241.56
2022-08-16T15:26:55.363Z,99241.25
2022-08-16T15:29:27.173Z,99232.81
2022-08-16T15:32:01.415Z,99240.13
2022-08-16T15:34:32.996Z,99241.84
2022-08-16T15:37:04.160Z,99239.84
2022-08-16T15:39:39.716Z,99236.06
2022-08-16T15:42:15.624Z,99235.59
2022-08-16T15:45:00.144Z,99235.75
2022-08-16T15:47:35.336Z,99233.69
2022-08-16T15:50:14.890Z,99238.25
2022-08-16T15:52:47.076Z,99245.00
2022-08-16T15:55:29.710Z,99236.72
2022-08-16T15:58:35.032Z,99237.16
2022-08-16T16:00:59.312Z,99234.97
2022-08-16T16:03:29.310Z,99242.22
2022-08-16T16:06:05.999Z,99235.66
2022-08-16T16:08:36.309Z,99244.78
2022-08-16T16:11:12.034Z,99231.97
2022-08-16T16:13:44.220Z,99238.50
2022-08-16T16:16:19.793Z,99241.91
2022-08-16T16:18:52.314Z,99242.16
2022-08-16T16:21:23.145Z,99241.31
2022-08-16T16:23:57.740Z,99242.19
2022-08-16T16:26:31.944Z,99241.56
2022-08-16T16:29:14.537Z,99237.38
2022-08-16T16:31:51.376Z,99240.19
2022-08-16T16:34:32.122Z,99241.50
2022-08-16T16:37:05.262Z,99241.63
2022-08-16T16:39:45.728Z,99241.63
2022-08-16T16:42:29.127Z,99242.78
2022-08-16T16:45:03.165Z,99241.13
2022-08-16T16:47:41.981Z,99240.03
2022-08-16T16:50:16.344Z,99241.97
2022-08-16T16:52:48.436Z,99242.66
2022-08-16T16:55:18.638Z,99249.91
2022-08-16T16:58:17.796Z,99245.00
2022-08-16T17:01:02.703Z,99240.31
2022-08-16T17:03:35.604Z,99239.78
2022-08-16T17:06:15.052Z,99248.16
2022-08-16T17:08:49.972Z,99245.47
2022-08-16T17:11:23.633Z,99252.88
2022-08-16T17:13:54.508Z,99250.41
2022-08-16T17:16:32.963Z,99256.00
2022-08-16T17:19:16.953Z,99254.97
2022-08-16T17:21:51.707Z,99250.63
2022-08-16T17:24:31.256Z,99256.00
2022-08-16T17:27:09.598Z,99258.34
2022-08-16T17:29:42.821Z,99255.22
2022-08-16T17:32:34.226Z,99261.25
2022-08-16T17:35:18.346Z,99261.13
2022-08-16T17:37:50.789Z,99255.78
2022-08-16T17:40:45.784Z,99254.22
2022-08-16T17:43:16.582Z,99259.09
2022-08-16T17:45:46.100Z,99255.00
2022-08-16T17:48:18.080Z,99257.66
2022-08-16T17:50:54.763Z,99257.22
2022-08-16T17:53:24.954Z,99250.28
2022-08-16T17:55:56.254Z,99245.47
2022-08-16T17:58:27.964Z,99247.63
2022-08-16T18:01:00.412Z,99253.97
2022-08-16T18:04:03.018Z,99246.03
2022-08-16T18:06:29.182Z,99261.25
2022-08-16T18:09:09.279Z,99247.50
2022-08-16T18:11:42.989Z,99248.38
2022-08-16T18:14:13.334Z,99250.75
2022-08-16T18:16:43.434Z,99250.63
2022-08-16T18:19:13.527Z,99252.53
2022-08-16T18:22:03.438Z,99243.34
2022-08-16T18:24:33.504Z,99246.06
2022-08-16T18:27:26.512Z,99248.63
2022-08-16T18:29:56.169Z,99241.16
2022-08-16T18:32:25.580Z,99243.94
2022-08-16T18:34:56.067Z,99241.25
2022-08-16T18:37:28.059Z,99243.06
2022-08-16T18:39:58.378Z,99239.72
2022-08-16T18:42:30.103Z,99239.72
2022-08-16T18:44:59.278Z,99237.47
2022-08-16T18:47:30.489Z,99229.88
2022-08-16T18:50:00.729Z,99244.38
2022-08-16T18:52:32.141Z,99234.34
2022-08-16T18:55:33.485Z,99226.97
2022-08-16T18:58:04.425Z,99229.97
2022-08-16T19:00:47.137Z,99228.06
2022-08-16T19:03:29.759Z,99227.38
2022-08-16T19:06:03.812Z,99230.06
2022-08-16T19:09:07.438Z,99225.75
2022-08-16T19:11:38.562Z,99229.38
2022-08-16T19:14:10.902Z,99231.94
2022-08-16T19:16:43.382Z,99230.75
2022-08-16T19:19:13.982Z,99231.28
2022-08-16T19:21:44.667Z,99226.16
2022-08-16T19:24:18.129Z,99227.94
2022-08-16T19:26:51.578Z,99229.81
2022-08-16T19:29:24.094Z,99228.16
2022-08-16T19:31:54.485Z,99226.72
2022-08-16T19:34:24.551Z,99228.25
2022-08-16T19:36:56.555Z,99230.19
2022-08-16T19:39:32.412Z,99225.81
2022-08-16T19:42:13.552Z,99219.00
2022-08-16T19:44:44.536Z,99227.28
2022-08-16T19:47:14.590Z,99225.47
2022-08-16T19:49:44.979Z,99218.56
2022-08-16T19:52:18.514Z,99221.13
2022-08-16T19:54:49.740Z,99225.13
2022-08-16T19:57:24.029Z,99221.56
2022-08-16T19:59:58.645Z,99221.00
2022-08-16T20:02:36.074Z,99219.78
2022-08-16T20:05:07.222Z,99217.88
2022-08-16T20:07:38.375Z,99217.78
2022-08-16T20:10:17.016Z,99213.19
2022-08-16T20:12:58.391Z,99215.31
2022-08-16T20:15:40.950Z,99213.97
2022-08-16T20:18:21.301Z,99221.63
2022-08-16T20:20:57.141Z,99218.50
2022-08-16T20:23:27.190Z,99219.16
2022-08-16T20:25:56.855Z,99214.53
2022-08-16T20:28:53.804Z,99216.50
2022-08-16T20:31:25.594Z,99221.69
2022-08-16T20:34:08.441Z,99225.75
2022-08-16T20:36:38.069Z,99217.41
2022-08-16T20:39:08.027Z,99216.81
2022-08-16T20:41:41.835Z,99221.84
2022-08-16T20:44:14.210Z,99222.16
2022-08-16T20:46:46.039Z,99226.72
2022-08-16T20:49:15.588Z,99228.25
2022-08-16T20:51:50.825Z,99228.16
2022-08-16T20:54:23.535Z,99225.84
2022-08-16T20:56:54.378Z,99231.84
2022-08-16T20:59:25.848Z,99229.06
2022-08-16T21:01:55.793Z,99227.31
2022-08-16T21:04:27.919Z,99225.69
2022-08-16T21:07:02.779Z,99232.47
2022-08-16T21:09:34.189Z,99224.09
2022-08-16T21:12:07.856Z,99231.44
2022-08-16T21:14:45.179Z,99221.06
2022-08-16T21:17:53.572Z,99225.78
2022-08-16T21:20:37.343Z,99232.81
2022-08-16T21:23:11.414Z,99229.69
2022-08-16T21:26:11.203Z,99227.44
2022-08-16T21:28:55.931Z,99227.66
2022-08-16T21:31:27.310Z,99229.16
2022-08-16T21:34:31.464Z,99227.75
2022-08-16T21:37:09.687Z,99227.06
2022-08-16T21:39:40.176Z,99237.50
2022-08-16T21:42:15.082Z,99230.72
2022-08-16T21:44:45.909Z,99228.03
2022-08-16T21:47:19.746Z,99225.94
2022-08-16T21:49:55.682Z,99226.00
2022-08-16T21:52:26.858Z,99226.38
2022-08-16T21:54:59.899Z,99229.84
2022-08-16T22:00:23.699Z,99221.84
2022-08-16T22:03:01.993Z,99226.81
2022-08-16T22:05:45.897Z,99213.91
2022-08-16T22:08:47.879Z,99212.44
2022-08-16T22:11:23.486Z,99218.47
2022-08-16T22:14:00.106Z,99214.06
2022-08-16T22:16:40.287Z,99214.13
2022-08-16T22:19:57.397Z,99214.28
2022-08-16T22:22:26.738Z,99209.13
2022-08-16T22:25:06.365Z,99217.47
2022-08-16T22:27:36.901Z,99208.69
2022-08-16T22:30:22.902Z,99205.19
2022-08-16T22:33:09.695Z,99206.50
2022-08-16T22:35:45.480Z,99209.47
2022-08-16T22:41:04.138Z,99216.03
2022-08-16T22:43:37.385Z,99221.75
2022-08-16T22:46:10.591Z,99226.19
2022-08-16T22:48:46.563Z,99223.03
2022-08-16T22:51:17.503Z,99224.16
2022-08-16T22:53:46.873Z,99227.81
2022-08-16T22:56:28.670Z,99221.50
2022-08-16T22:58:58.930Z,99220.41
2022-08-16T23:01:28.332Z,99224.47
2022-08-16T23:04:09.292Z,99229.25
2022-08-16T23:09:28.118Z,99223.88
2022-08-16T23:11:58.871Z,99225.31
2022-08-16T23:14:31.485Z,99224.63
2022-08-16T23:17:10.658Z,99229.81
2022-08-16T23:19:40.851Z,99227.38
2022-08-16T23:22:11.613Z,99221.06
2022-08-16T23:24:55.053Z,99224.63
2022-08-16T23:27:31.765Z,99230.34
2022-08-16T23:30:08.888Z,99228.25
2022-08-16T23:32:45.589Z,99227.84
2022-08-16T23:35:16.801Z,99231.22
2022-08-16T23:37:49.113Z,99220.72
2022-08-16T23:40:19.452Z,99226.44
2022-08-16T23:43:01.755Z,99228.16
2022-08-16T23:45:38.898Z,99221.94
2022-08-16T23:48:08.979Z,99223.72
2022-08-16T23:50:41.179Z,99221.66
2022-08-16T23:53:13.845Z,99217.19
2022-08-16T23:55:46.220Z,99224.38
2022-08-16T23:58:18.021Z,99225.28
